Minden, NV (89423)

3:24 AM PST on December 27, 2014 (GMT -0800)
Brandi Rose Way | Change Station
CLOSE
Current Station
Personal Weather Station
Location: Minden, NV
Elevation: 4801 ft
Nearby Weather Stations

Elev 4801 ft 39.04 °N, 119.72 °W | Updated 6 seconds ago

Clear
Clear
15.9 °F
Feels Like 16 °F
N
2.0
Wind Variable Wind from NE
Gusts 3.0 mph

Today
High -- | Low -- °F
--% Chance of Precip.
Yesterday
High -- | Low -- °F
Precip. -- in
7:16 AM 4:43 PM
Waxing Crescent, 35% visible
Pressure 30.34 in
Visibility 10.0 miles
Clouds Clear
Windchill 16 °F
Dew Point 11 °F
Humidity 79%
Rainfall 0.00 in
Snow Depth Not available.
UV 0 out of 12
Pollen .30 out of 12
Air Quality Not available.
Flu Activity Not available.
METAR KCXP 271115Z AUTO 00000KT 10SM CLR M09/M11 A3034 RMK AO2

More Conditions Fewer Conditions

Pressure 30.34 in
Visibility 10.0 miles
Clouds Clear
Windchill 16 °F
Dew Point 11 °F
Humidity 79%
Rainfall 0.00 in
Snow Depth Not available.
UV 0 out of 12
Pollen .30 out of 12
Air Quality Not available.
Flu Activity Not available.
METAR KCXP 271115Z AUTO 00000KT 10SM CLR M09/M11 A3034 RMK AO2

More Conditions Fewer Conditions

10-Day Weather Forecast

Almanac

Astronomy

Dec. 27, 2014 Rise Set
Actual Time
Civil Twilight
Nautical Twilight
Astronomical Twilight
Moon
Length of Visible Light
Length of Day
Tomorrow will be .
, % of the Moon is Illuminated

Today's Extremes

State Highs State Lows

Community

WunderPhotos

Upload Photos

1,780,881 photos uploaded!

WunderBlogs® & News

Nearby

Air Quality

  Air Quality AQ Index Pollutant
Not available.

Snow Depth

Station Depth Elevation

Earthquake Activity

City Distance Mag. Time & Date
Minimum magnitude displayed is 2.5.

Coastal Water Temperatures

Place Temperature

Nearby Weather Stations